createdAt,value
2017-09-05T00:00:19.480Z,1006.74
2017-09-05T00:00:59.980Z,1006.75
2017-09-05T00:01:40.495Z,1006.75
2017-09-05T00:02:21.047Z,1006.75
2017-09-05T00:03:01.604Z,1006.72
2017-09-05T00:03:42.172Z,1006.75
2017-09-05T00:04:22.732Z,1006.74
2017-09-05T00:05:03.255Z,1006.73
2017-09-05T00:05:43.832Z,1006.73
2017-09-05T00:06:24.323Z,1006.72
2017-09-05T00:07:04.844Z,1006.77
2017-09-05T00:07:45.445Z,1006.77
2017-09-05T00:08:25.971Z,1006.8
2017-09-05T00:09:06.554Z,1006.79
2017-09-05T00:09:47.111Z,1006.78
2017-09-05T00:10:27.677Z,1006.77
2017-09-05T00:11:08.217Z,1006.79
2017-09-05T00:11:48.733Z,1006.77
2017-09-05T00:12:29.261Z,1006.78
2017-09-05T00:13:09.798Z,1006.77
2017-09-05T00:13:50.328Z,1006.75
2017-09-05T00:14:30.914Z,1006.79
2017-09-05T00:15:11.437Z,1006.8
2017-09-05T00:15:51.960Z,1006.77
2017-09-05T00:16:32.513Z,1006.78
2017-09-05T00:17:13.046Z,1006.82
2017-09-05T00:17:53.637Z,1006.79
2017-09-05T00:18:34.153Z,1006.8
2017-09-05T00:19:14.681Z,1006.8
2017-09-05T00:19:55.232Z,1006.79
2017-09-05T00:20:35.775Z,1006.82
2017-09-05T00:21:16.323Z,1006.77
2017-09-05T00:21:56.858Z,1006.76
2017-09-05T00:22:37.417Z,1006.79
2017-09-05T00:23:17.931Z,1006.75
2017-09-05T00:23:58.479Z,1006.75
2017-09-05T00:24:39.047Z,1006.75
2017-09-05T00:25:19.569Z,1006.76
2017-09-05T00:26:00.131Z,1006.76
2017-09-05T00:26:40.640Z,1006.7
2017-09-05T00:27:21.244Z,1006.75
2017-09-05T00:28:01.835Z,1006.71
2017-09-05T00:28:42.315Z,1006.75
2017-09-05T00:29:22.890Z,1006.73
2017-09-05T00:30:03.423Z,1006.76
2017-09-05T00:30:43.990Z,1006.8
2017-09-05T00:31:24.496Z,1006.78
2017-09-05T00:32:05.045Z,1006.78
2017-09-05T00:32:45.551Z,1006.81
2017-09-05T00:33:26.089Z,1006.78
2017-09-05T00:34:06.629Z,1006.83
2017-09-05T00:34:47.153Z,1006.84
2017-09-05T00:35:27.690Z,1006.84
2017-09-05T00:36:08.195Z,1006.78
2017-09-05T00:36:48.758Z,1006.79
2017-09-05T00:37:29.267Z,1006.79
2017-09-05T00:38:09.802Z,1006.79
2017-09-05T00:38:50.371Z,1006.84
2017-09-05T00:39:30.916Z,1006.79
2017-09-05T00:40:11.408Z,1006.77
2017-09-05T00:40:51.967Z,1006.75
2017-09-05T00:41:32.494Z,1006.77
2017-09-05T00:42:12.993Z,1006.73
2017-09-05T00:42:53.541Z,1006.75
2017-09-05T00:43:34.108Z,1006.77
2017-09-05T00:44:14.695Z,1006.76
2017-09-05T00:44:55.181Z,1006.73
2017-09-05T00:45:35.728Z,1006.76
2017-09-05T00:46:16.245Z,1006.75
2017-09-05T00:46:56.804Z,1006.76
2017-09-05T00:47:37.340Z,1006.74
2017-09-05T00:48:17.874Z,1006.76
2017-09-05T00:48:58.437Z,1006.76
2017-09-05T00:49:38.942Z,1006.74
2017-09-05T00:50:19.504Z,1006.74
2017-09-05T00:51:00.046Z,1006.81
2017-09-05T00:51:40.615Z,1006.85
2017-09-05T00:52:21.186Z,1006.8
2017-09-05T00:53:01.786Z,1006.83
2017-09-05T00:53:42.312Z,1006.81
2017-09-05T00:54:22.875Z,1006.82
2017-09-05T00:55:03.388Z,1006.82
2017-09-05T00:55:43.941Z,1006.8
2017-09-05T00:56:24.433Z,1006.78
2017-09-05T00:57:05.019Z,1006.74
2017-09-05T00:57:45.540Z,1006.8
2017-09-05T00:58:26.125Z,1006.8
2017-09-05T00:59:06.606Z,1006.79
2017-09-05T00:59:47.169Z,1006.76
2017-09-05T01:00:27.698Z,1006.75
2017-09-05T01:01:08.222Z,1006.76
2017-09-05T01:01:48.781Z,1006.74
2017-09-05T01:02:29.274Z,1006.72
2017-09-05T01:03:09.836Z,1006.75
2017-09-05T01:03:50.412Z,1006.78
2017-09-05T01:04:30.897Z,1006.75
2017-09-05T01:05:11.422Z,1006.79
2017-09-05T01:05:51.970Z,1006.75
2017-09-05T01:06:32.515Z,1006.74
2017-09-05T01:07:13.035Z,1006.71
2017-09-05T01:07:53.591Z,1006.75
2017-09-05T01:08:34.086Z,1006.71
2017-09-05T01:09:15.421Z,1006.74
2017-09-05T01:09:55.947Z,1006.72
2017-09-05T01:10:36.476Z,1006.67
2017-09-05T01:11:16.978Z,1006.7
2017-09-05T01:11:57.561Z,1006.71
2017-09-05T01:12:38.114Z,1006.64
2017-09-05T01:13:18.614Z,1006.64
2017-09-05T01:13:59.140Z,1006.65
2017-09-05T01:14:39.678Z,1006.67
2017-09-05T01:15:20.214Z,1006.68
2017-09-05T01:16:00.789Z,1006.64
2017-09-05T01:16:41.308Z,1006.64
2017-09-05T01:17:21.843Z,1006.63
2017-09-05T01:18:02.451Z,1006.62
2017-09-05T01:18:42.985Z,1006.62
2017-09-05T01:19:23.556Z,1006.61
2017-09-05T01:20:04.091Z,1006.61
2017-09-05T01:20:44.649Z,1006.61
2017-09-05T01:21:25.208Z,1006.55
2017-09-05T01:22:05.734Z,1006.61
2017-09-05T01:22:46.215Z,1006.57
2017-09-05T01:23:26.737Z,1006.56
2017-09-05T01:24:07.317Z,1006.56
2017-09-05T01:24:47.853Z,1006.6
2017-09-05T01:25:28.377Z,1006.59
2017-09-05T01:26:08.953Z,1006.57
2017-09-05T01:26:49.494Z,1006.59
2017-09-05T01:27:30.039Z,1006.58
2017-09-05T01:28:10.559Z,1006.58
2017-09-05T01:28:51.047Z,1006.6
2017-09-05T01:29:31.627Z,1006.56
2017-09-05T01:30:12.124Z,1006.63
2017-09-05T01:30:52.677Z,1006.61
2017-09-05T01:31:33.221Z,1006.61
2017-09-05T01:32:13.760Z,1006.61
2017-09-05T01:32:54.250Z,1006.57
2017-09-05T01:33:34.794Z,1006.6
2017-09-05T01:34:15.371Z,1006.61
2017-09-05T01:34:55.955Z,1006.63
2017-09-05T01:35:36.520Z,1006.66
2017-09-05T01:36:16.969Z,1006.65
2017-09-05T01:36:57.562Z,1006.64
2017-09-05T01:37:38.087Z,1006.61
2017-09-05T01:38:18.642Z,1006.6
2017-09-05T01:38:59.206Z,1006.64
2017-09-05T01:39:39.736Z,1006.67
2017-09-05T01:40:20.316Z,1006.69
2017-09-05T01:41:00.820Z,1006.65
2017-09-05T01:41:41.378Z,1006.67
2017-09-05T01:42:21.878Z,1006.62
2017-09-05T01:43:02.425Z,1006.65
2017-09-05T01:43:43.039Z,1006.64
2017-09-05T01:44:23.586Z,1006.71
2017-09-05T01:45:04.142Z,1006.66
2017-09-05T01:45:44.700Z,1006.67
2017-09-05T01:46:25.222Z,1006.67
2017-09-05T01:47:05.761Z,1006.69
2017-09-05T01:47:46.315Z,1006.66
2017-09-05T01:48:26.856Z,1006.68
2017-09-05T01:49:07.393Z,1006.67
2017-09-05T01:49:47.966Z,1006.69
2017-09-05T01:50:28.559Z,1006.64
2017-09-05T01:51:09.030Z,1006.62
2017-09-05T01:51:49.660Z,1006.57
2017-09-05T01:52:30.243Z,1006.59
2017-09-05T01:53:10.769Z,1006.56
2017-09-05T01:53:51.320Z,1006.61
2017-09-05T01:54:31.803Z,1006.56
2017-09-05T01:55:12.395Z,1006.58
2017-09-05T01:55:52.953Z,1006.57
2017-09-05T01:56:33.515Z,1006.53
2017-09-05T01:57:14.084Z,1006.55
2017-09-05T01:57:54.616Z,1006.48
2017-09-05T01:58:35.118Z,1006.56
2017-09-05T01:59:15.685Z,1006.55
2017-09-05T01:59:56.179Z,1006.54
2017-09-05T02:00:36.758Z,1006.58
2017-09-05T02:01:17.262Z,1006.55
2017-09-05T02:01:57.908Z,1006.54
2017-09-05T02:02:38.458Z,1006.57
2017-09-05T02:03:18.962Z,1006.56
2017-09-05T02:03:59.487Z,1006.53
2017-09-05T02:04:40.069Z,1006.53
2017-09-05T02:05:20.583Z,1006.56
2017-09-05T02:06:01.114Z,1006.52
2017-09-05T02:06:41.689Z,1006.53
2017-09-05T02:07:22.227Z,1006.53
2017-09-05T02:08:02.783Z,1006.58
2017-09-05T02:08:43.313Z,1006.51
2017-09-05T02:09:23.839Z,1006.53
2017-09-05T02:10:04.393Z,1006.54
2017-09-05T02:10:44.909Z,1006.53
2017-09-05T02:11:25.414Z,1006.54
2017-09-05T02:12:05.977Z,1006.54
2017-09-05T02:12:46.483Z,1006.5
2017-09-05T02:13:27.040Z,1006.48
2017-09-05T02:14:07.580Z,1006.49
2017-09-05T02:14:48.122Z,1006.44
2017-09-05T02:15:28.698Z,1006.46
2017-09-05T02:16:09.177Z,1006.41
2017-09-05T02:16:49.751Z,1006.44
2017-09-05T02:17:30.323Z,1006.43
2017-09-05T02:18:10.833Z,1006.41
2017-09-05T02:18:51.362Z,1006.38
2017-09-05T02:19:31.864Z,1006.39
2017-09-05T02:20:12.406Z,1006.41
2017-09-05T02:20:52.968Z,1006.36
2017-09-05T02:21:33.595Z,1006.43
2017-09-05T02:22:14.138Z,1006.42
2017-09-05T02:22:54.675Z,1006.4
2017-09-05T02:23:35.327Z,1006.41
2017-09-05T02:24:15.890Z,1006.43
2017-09-05T02:24:56.420Z,1006.47
2017-09-05T02:25:36.998Z,1006.41
2017-09-05T02:26:17.502Z,1006.39
2017-09-05T02:26:58.052Z,1006.43
2017-09-05T02:27:38.560Z,1006.4
2017-09-05T02:28:19.098Z,1006.47
2017-09-05T02:28:59.659Z,1006.37
2017-09-05T02:29:40.230Z,1006.39
2017-09-05T02:30:20.807Z,1006.42
2017-09-05T02:31:01.301Z,1006.39
2017-09-05T02:31:41.880Z,1006.42
2017-09-05T02:32:22.453Z,1006.38
2017-09-05T02:33:02.971Z,1006.39
2017-09-05T02:33:43.608Z,1006.4
2017-09-05T02:34:24.149Z,1006.38
2017-09-05T02:35:04.639Z,1006.4
2017-09-05T02:35:45.186Z,1006.45
2017-09-05T02:36:25.758Z,1006.45
2017-09-05T02:37:06.348Z,1006.49
2017-09-05T02:37:46.832Z,1006.49
2017-09-05T02:38:27.387Z,1006.51
2017-09-05T02:39:07.898Z,1006.47
2017-09-05T02:39:48.494Z,1006.47
2017-09-05T02:40:29.056Z,1006.51
2017-09-05T02:41:09.557Z,1006.51
2017-09-05T02:41:50.131Z,1006.49
2017-09-05T02:42:30.674Z,1006.52
2017-09-05T02:43:11.219Z,1006.51
2017-09-05T02:43:51.749Z,1006.53
2017-09-05T02:44:32.370Z,1006.5
2017-09-05T02:45:12.854Z,1006.53
2017-09-05T02:45:53.368Z,1006.58
2017-09-05T02:46:33.908Z,1006.57
2017-09-05T02:47:14.498Z,1006.51
2017-09-05T02:47:55.043Z,1006.52
2017-09-05T02:48:35.580Z,1006.51
2017-09-05T02:49:16.185Z,1006.48
2017-09-05T02:49:56.716Z,1006.47
2017-09-05T02:50:37.328Z,1006.45
2017-09-05T02:51:17.852Z,1006.52
2017-09-05T02:51:58.351Z,1006.49
2017-09-05T02:52:38.930Z,1006.46
2017-09-05T02:53:19.503Z,1006.51
2017-09-05T02:54:00.017Z,1006.52
2017-09-05T02:54:40.567Z,1006.5
2017-09-05T02:55:21.140Z,1006.55
2017-09-05T02:56:01.692Z,1006.5
2017-09-05T02:56:42.182Z,1006.48
2017-09-05T02:57:22.780Z,1006.53
2017-09-05T02:58:03.339Z,1006.54
2017-09-05T02:58:43.870Z,1006.55
2017-09-05T02:59:24.443Z,1006.54
2017-09-05T03:00:04.971Z,1006.56
2017-09-05T03:00:45.573Z,1006.5
2017-09-05T03:01:26.093Z,1006.54
2017-09-05T03:02:06.702Z,1006.52
2017-09-05T03:02:47.260Z,1006.51
2017-09-05T03:03:27.787Z,1006.5
2017-09-05T03:04:08.369Z,1006.5
2017-09-05T03:04:48.920Z,1006.5
2017-09-05T03:05:29.477Z,1006.51
2017-09-05T03:06:10.003Z,1006.49
2017-09-05T03:06:50.534Z,1006.51
2017-09-05T03:07:31.061Z,1006.47
2017-09-05T03:08:11.615Z,1006.48
2017-09-05T03:08:52.146Z,1006.47
2017-09-05T03:09:32.694Z,1006.44
2017-09-05T03:10:13.231Z,1006.45
2017-09-05T03:10:53.786Z,1006.51
2017-09-05T03:11:34.326Z,1006.43
2017-09-05T03:12:14.823Z,1006.48
2017-09-05T03:12:55.380Z,1006.45
2017-09-05T03:13:35.929Z,1006.48
2017-09-05T03:14:16.465Z,1006.46
2017-09-05T03:14:57.018Z,1006.5
2017-09-05T03:15:37.567Z,1006.45
2017-09-05T03:16:18.037Z,1006.4
2017-09-05T03:16:58.619Z,1006.48
2017-09-05T03:17:39.204Z,1006.42
2017-09-05T03:18:19.743Z,1006.48
2017-09-05T03:19:00.288Z,1006.47
2017-09-05T03:19:40.841Z,1006.5
2017-09-05T03:20:21.357Z,1006.49
2017-09-05T03:21:01.856Z,1006.46
2017-09-05T03:21:42.454Z,1006.51
2017-09-05T03:22:22.928Z,1006.44
2017-09-05T03:23:03.505Z,1006.49
2017-09-05T03:23:44.010Z,1006.48
2017-09-05T03:24:24.619Z,1006.47
2017-09-05T03:25:05.126Z,1006.44
2017-09-05T03:25:45.634Z,1006.44
2017-09-05T03:26:26.236Z,1006.45
2017-09-05T03:27:06.745Z,1006.46
2017-09-05T03:27:48.035Z,1006.48
2017-09-05T03:28:28.559Z,1006.45
2017-09-05T03:29:09.097Z,1006.39
2017-09-05T03:29:49.600Z,1006.41
2017-09-05T03:30:30.185Z,1006.39
2017-09-05T03:31:10.657Z,1006.45
2017-09-05T03:31:51.227Z,1006.41
2017-09-05T03:32:31.740Z,1006.42
2017-09-05T03:33:12.317Z,1006.45
2017-09-05T03:33:52.845Z,1006.45
2017-09-05T03:34:33.383Z,1006.43
2017-09-05T03:35:13.908Z,1006.41
2017-09-05T03:35:54.450Z,1006.4
2017-09-05T03:36:34.984Z,1006.44
2017-09-05T03:37:15.492Z,1006.43
2017-09-05T03:37:56.061Z,1006.43
2017-09-05T03:38:36.564Z,1006.42
2017-09-05T03:39:17.141Z,1006.44
2017-09-05T03:39:57.624Z,1006.45
2017-09-05T03:40:38.168Z,1006.45
2017-09-05T03:41:18.702Z,1006.46
2017-09-05T03:41:59.250Z,1006.41
2017-09-05T03:42:39.773Z,1006.47
2017-09-05T03:43:20.330Z,1006.43
2017-09-05T03:44:00.876Z,1006.4
2017-09-05T03:44:41.406Z,1006.4
2017-09-05T03:45:21.932Z,1006.4
2017-09-05T03:46:02.457Z,1006.4
2017-09-05T03:46:43.000Z,1006.41
2017-09-05T03:47:23.517Z,1006.38
2017-09-05T03:48:04.044Z,1006.4
2017-09-05T03:48:44.655Z,1006.34
2017-09-05T03:49:25.212Z,1006.4
2017-09-05T03:50:05.733Z,1006.41
2017-09-05T03:50:46.242Z,1006.39
2017-09-05T03:51:26.789Z,1006.41
2017-09-05T03:52:07.394Z,1006.41
2017-09-05T03:52:47.950Z,1006.42
2017-09-05T03:53:28.519Z,1006.46
2017-09-05T03:54:09.064Z,1006.46
2017-09-05T03:54:49.798Z,1006.42
2017-09-05T03:55:30.275Z,1006.44
2017-09-05T03:56:10.853Z,1006.43
2017-09-05T03:56:51.381Z,1006.42
2017-09-05T03:57:31.909Z,1006.45
2017-09-05T03:58:12.492Z,1006.42
2017-09-05T03:58:53.003Z,1006.42
2017-09-05T03:59:33.510Z,1006.49
2017-09-05T04:00:14.133Z,1006.52
2017-09-05T04:00:54.663Z,1006.48
2017-09-05T04:01:35.216Z,1006.46
2017-09-05T04:02:15.702Z,1006.47
2017-09-05T04:02:56.267Z,1006.46
2017-09-05T04:03:36.883Z,1006.43
2017-09-05T04:04:17.372Z,1006.45
2017-09-05T04:04:57.955Z,1006.45
2017-09-05T04:05:38.510Z,1006.49
2017-09-05T04:06:19.050Z,1006.46
2017-09-05T04:06:59.556Z,1006.49
2017-09-05T04:07:40.102Z,1006.53
2017-09-05T04:08:20.631Z,1006.5
2017-09-05T04:09:01.183Z,1006.53
2017-09-05T04:09:41.731Z,1006.56
2017-09-05T04:10:22.287Z,1006.54
2017-09-05T04:11:02.751Z,1006.5
2017-09-05T04:11:43.383Z,1006.47
2017-09-05T04:12:23.893Z,1006.53
2017-09-05T04:13:04.448Z,1006.52
2017-09-05T04:13:45.009Z,1006.5
2017-09-05T04:14:25.543Z,1006.48
2017-09-05T04:15:06.056Z,1006.48
2017-09-05T04:15:46.615Z,1006.52
2017-09-05T04:16:27.159Z,1006.48
2017-09-05T04:17:07.669Z,1006.51
2017-09-05T04:17:48.190Z,1006.53
2017-09-05T04:18:28.690Z,1006.53
2017-09-05T04:19:09.271Z,1006.5
2017-09-05T04:19:49.808Z,1006.53
2017-09-05T04:20:30.404Z,1006.52
2017-09-05T04:21:10.968Z,1006.52
2017-09-05T04:21:51.503Z,1006.53
2017-09-05T04:22:32.007Z,1006.52
2017-09-05T04:23:12.521Z,1006.48
2017-09-05T04:23:53.004Z,1006.51
2017-09-05T04:24:33.577Z,1006.49
2017-09-05T04:25:14.285Z,1006.49
2017-09-05T04:25:54.816Z,1006.51
2017-09-05T04:26:35.323Z,1006.51
2017-09-05T04:27:15.892Z,1006.52
2017-09-05T04:27:56.401Z,1006.53
2017-09-05T04:28:36.932Z,1006.53
2017-09-05T04:29:17.497Z,1006.49
2017-09-05T04:29:57.978Z,1006.53
2017-09-05T04:30:38.514Z,1006.51
2017-09-05T04:31:19.028Z,1006.54
2017-09-05T04:31:59.946Z,1006.55
2017-09-05T04:32:40.574Z,1006.5
2017-09-05T04:33:21.571Z,1006.51
2017-09-05T04:34:02.396Z,1006.54
2017-09-05T04:34:43.520Z,1006.54
2017-09-05T04:35:24.083Z,1006.55
2017-09-05T04:36:04.678Z,1006.48
2017-09-05T04:36:45.428Z,1006.52
2017-09-05T04:37:26.079Z,1006.52
2017-09-05T04:38:06.696Z,1006.51
2017-09-05T04:38:47.203Z,1006.49
2017-09-05T04:39:27.874Z,1006.48
2017-09-05T04:40:08.494Z,1006.5
2017-09-05T04:40:49.026Z,1006.52
2017-09-05T04:41:29.557Z,1006.5
2017-09-05T04:42:10.083Z,1006.55
2017-09-05T04:42:50.672Z,1006.52
2017-09-05T04:43:31.273Z,1006.48
2017-09-05T04:44:11.790Z,1006.53
2017-09-05T04:44:52.370Z,1006.55
2017-09-05T04:45:32.925Z,1006.52
2017-09-05T04:46:13.469Z,1006.53
2017-09-05T04:46:54.021Z,1006.55
2017-09-05T04:47:34.576Z,1006.53
2017-09-05T04:48:15.168Z,1006.55
2017-09-05T04:48:55.638Z,1006.54
2017-09-05T04:49:36.187Z,1006.56
2017-09-05T04:50:16.711Z,1006.51
2017-09-05T04:50:57.265Z,1006.52
2017-09-05T04:51:37.807Z,1006.52
2017-09-05T04:52:18.364Z,1006.5
2017-09-05T04:52:58.895Z,1006.5
2017-09-05T04:53:39.620Z,1006.53
2017-09-05T04:54:20.149Z,1006.51
2017-09-05T04:55:00.679Z,1006.47
2017-09-05T04:55:41.270Z,1006.52
2017-09-05T04:56:21.855Z,1006.51
2017-09-05T04:57:02.438Z,1006.6
2017-09-05T04:57:42.975Z,1006.58
2017-09-05T04:58:23.520Z,1006.55
2017-09-05T04:59:04.058Z,1006.55
2017-09-05T04:59:44.623Z,1006.54
2017-09-05T05:00:25.123Z,1006.56
2017-09-05T05:01:05.725Z,1006.56
2017-09-05T05:01:46.238Z,1006.56
2017-09-05T05:02:26.784Z,1006.57
2017-09-05T05:03:07.448Z,1006.54
2017-09-05T05:03:47.979Z,1006.54
2017-09-05T05:04:28.536Z,1006.55
2017-09-05T05:05:09.115Z,1006.56
2017-09-05T05:05:49.620Z,1006.56
2017-09-05T05:06:30.211Z,1006.56
2017-09-05T05:07:10.758Z,1006.6
2017-09-05T05:07:51.284Z,1006.56
2017-09-05T05:08:33.872Z,1006.56
2017-09-05T05:09:14.979Z,1006.59
2017-09-05T05:09:55.571Z,1006.62
2017-09-05T05:10:36.120Z,1006.65
2017-09-05T05:11:16.670Z,1006.61
2017-09-05T05:11:57.191Z,1006.59
2017-09-05T05:12:37.957Z,1006.62
2017-09-05T05:13:18.469Z,1006.62
2017-09-05T05:13:59.016Z,1006.62
2017-09-05T05:14:39.522Z,1006.67
2017-09-05T05:15:20.390Z,1006.62
2017-09-05T05:16:01.955Z,1006.68
2017-09-05T05:16:42.516Z,1006.67
2017-09-05T05:17:23.168Z,1006.72
2017-09-05T05:18:03.710Z,1006.68
2017-09-05T05:18:44.276Z,1006.7
2017-09-05T05:19:24.819Z,1006.71
2017-09-05T05:20:05.339Z,1006.66
2017-09-05T05:20:45.892Z,1006.68
2017-09-05T05:21:26.433Z,1006.65
2017-09-05T05:22:08.341Z,1006.62
2017-09-05T05:22:48.942Z,1006.65
2017-09-05T05:23:29.514Z,1006.67
2017-09-05T05:24:10.105Z,1006.66
2017-09-05T05:24:50.764Z,1006.72
2017-09-05T05:25:31.364Z,1006.71
2017-09-05T05:26:11.936Z,1006.7
2017-09-05T05:26:53.516Z,1006.76
2017-09-05T05:27:34.226Z,1006.76
2017-09-05T05:28:14.780Z,1006.77
2017-09-05T05:28:55.508Z,1006.75
2017-09-05T05:29:36.068Z,1006.75
2017-09-05T05:30:16.516Z,1006.7
2017-09-05T05:30:57.305Z,1006.74
2017-09-05T05:31:38.598Z,1006.75
2017-09-05T05:32:19.259Z,1006.71
2017-09-05T05:32:59.888Z,1006.76
2017-09-05T05:33:40.412Z,1006.73
2017-09-05T05:34:20.913Z,1006.76
2017-09-05T05:35:01.567Z,1006.74
2017-09-05T05:35:42.113Z,1006.75
2017-09-05T05:36:22.665Z,1006.75
2017-09-05T05:37:03.336Z,1006.72
2017-09-05T05:37:44.114Z,1006.75
2017-09-05T05:38:24.496Z,1006.73
2017-09-05T05:39:06.103Z,1006.74
2017-09-05T05:39:47.016Z,1006.69
2017-09-05T05:40:27.562Z,1006.67
2017-09-05T05:41:08.062Z,1006.66
2017-09-05T05:41:48.800Z,1006.69
2017-09-05T05:42:29.774Z,1006.7
2017-09-05T05:43:10.416Z,1006.74
2017-09-05T05:43:50.919Z,1006.69
2017-09-05T05:44:32.169Z,1006.69
2017-09-05T05:45:12.985Z,1006.72
2017-09-05T05:45:53.472Z,1006.68
2017-09-05T05:46:34.573Z,1006.7
2017-09-05T05:47:15.278Z,1006.73
2017-09-05T05:47:55.824Z,1006.71
2017-09-05T05:48:36.505Z,1006.71
2017-09-05T05:49:16.995Z,1006.69
2017-09-05T05:49:57.665Z,1006.73
2017-09-05T05:50:38.822Z,1006.76
2017-09-05T05:51:19.888Z,1006.75
2017-09-05T05:52:00.758Z,1006.76
2017-09-05T05:52:42.125Z,1006.75
2017-09-05T05:53:22.553Z,1006.79
2017-09-05T05:54:03.296Z,1006.8
2017-09-05T05:54:43.733Z,1006.74
2017-09-05T05:55:24.271Z,1006.78
2017-09-05T05:56:04.899Z,1006.74
2017-09-05T05:56:45.777Z,1006.81
2017-09-05T05:57:26.287Z,1006.79
2017-09-05T05:58:06.739Z,1006.78
2017-09-05T05:58:47.434Z,1006.79
2017-09-05T05:59:27.896Z,1006.8
2017-09-05T06:00:08.600Z,1006.82
2017-09-05T06:00:49.206Z,1006.85
2017-09-05T06:01:29.582Z,1006.82
2017-09-05T06:02:10.321Z,1006.84
2017-09-05T06:02:50.858Z,1006.85
2017-09-05T06:03:31.469Z,1006.88
2017-09-05T06:04:12.017Z,1006.82
2017-09-05T06:04:52.547Z,1006.86
2017-09-05T06:05:33.134Z,1006.88
2017-09-05T06:06:13.662Z,1006.87
2017-09-05T06:06:54.203Z,1006.85
2017-09-05T06:07:34.734Z,1006.85
2017-09-05T06:08:15.273Z,1006.85
2017-09-05T06:08:55.885Z,1006.83
2017-09-05T06:09:36.475Z,1006.82
2017-09-05T06:10:16.956Z,1006.81
2017-09-05T06:10:57.601Z,1006.83
2017-09-05T06:11:38.178Z,1006.85
2017-09-05T06:12:18.732Z,1006.86
2017-09-05T06:12:59.273Z,1006.81
2017-09-05T06:13:39.848Z,1006.81
2017-09-05T06:14:20.379Z,1006.82
2017-09-05T06:15:00.895Z,1006.83
2017-09-05T06:15:41.843Z,1006.8
2017-09-05T06:16:22.700Z,1006.81
2017-09-05T06:17:03.754Z,1006.84
2017-09-05T06:17:44.542Z,1006.86
2017-09-05T06:18:25.107Z,1006.84
2017-09-05T06:19:05.688Z,1006.84
2017-09-05T06:19:46.194Z,1006.82
2017-09-05T06:20:26.757Z,1006.84
2017-09-05T06:21:07.380Z,1006.89
2017-09-05T06:21:47.933Z,1006.88
2017-09-05T06:22:28.394Z,1006.88
2017-09-05T06:23:08.994Z,1006.87
2017-09-05T06:23:49.502Z,1006.86
2017-09-05T06:24:30.012Z,1006.92
2017-09-05T06:25:10.563Z,1006.95
2017-09-05T06:25:51.115Z,1006.92
2017-09-05T06:26:31.665Z,1006.92
2017-09-05T06:27:12.657Z,1006.9
2017-09-05T06:27:53.171Z,1006.95
2017-09-05T06:28:33.688Z,1006.97
2017-09-05T06:29:14.252Z,1006.97
2017-09-05T06:29:54.753Z,1007
2017-09-05T06:30:35.337Z,1007.04
2017-09-05T06:31:15.851Z,1007.03
2017-09-05T06:31:56.390Z,1007
2017-09-05T06:32:36.936Z,1006.99
2017-09-05T06:33:17.572Z,1007.01
2017-09-05T06:33:58.048Z,1007.03
2017-09-05T06:34:38.577Z,1006.99
2017-09-05T06:35:19.172Z,1006.96
2017-09-05T06:35:59.728Z,1007
2017-09-05T06:36:40.234Z,1006.95
2017-09-05T06:37:20.787Z,1006.96
2017-09-05T06:38:01.302Z,1006.99
2017-09-05T06:38:41.848Z,1006.96
2017-09-05T06:39:22.374Z,1006.98
2017-09-05T06:40:02.934Z,1006.99
2017-09-05T06:40:43.460Z,1006.97
2017-09-05T06:41:24.026Z,1007
2017-09-05T06:42:05.459Z,1007.01
2017-09-05T06:42:46.013Z,1006.95
2017-09-05T06:43:26.595Z,1006.9
2017-09-05T06:44:07.123Z,1006.94
2017-09-05T06:44:47.672Z,1006.97
2017-09-05T06:45:28.244Z,1006.95
2017-09-05T06:46:08.739Z,1006.93
2017-09-05T06:46:49.317Z,1006.99
2017-09-05T06:47:30.040Z,1006.99
2017-09-05T06:48:10.659Z,1006.93
2017-09-05T06:48:51.124Z,1006.97
2017-09-05T06:49:31.689Z,1006.96
2017-09-05T06:50:12.280Z,1006.94
2017-09-05T06:50:52.788Z,1006.96
2017-09-05T06:51:36.160Z,1006.97
2017-09-05T06:52:16.724Z,1006.96
2017-09-05T06:52:57.252Z,1006.97
2017-09-05T06:53:37.806Z,1006.95
2017-09-05T06:54:18.351Z,1006.94
2017-09-05T06:54:58.841Z,1006.93
2017-09-05T06:55:39.421Z,1006.97
2017-09-05T06:56:19.979Z,1006.95
2017-09-05T06:57:00.582Z,1006.92
2017-09-05T06:57:41.062Z,1006.96
2017-09-05T06:58:21.668Z,1006.93
2017-09-05T06:59:02.221Z,1006.9
2017-09-05T06:59:42.775Z,1006.97
2017-09-05T07:00:23.301Z,1006.93
2017-09-05T07:01:03.890Z,1006.93
2017-09-05T07:01:44.466Z,1006.88
2017-09-05T07:02:25.240Z,1006.93
2017-09-05T07:03:05.748Z,1006.93
2017-09-05T07:03:46.273Z,1006.96
2017-09-05T07:04:26.804Z,1006.93
2017-09-05T07:05:07.389Z,1006.94
2017-09-05T07:05:47.952Z,1006.97
2017-09-05T07:06:28.538Z,1006.97
2017-09-05T07:07:09.061Z,1006.99
2017-09-05T07:07:49.618Z,1007
2017-09-05T07:08:30.163Z,1006.99
2017-09-05T07:09:10.712Z,1006.99
2017-09-05T07:09:51.243Z,1006.93
2017-09-05T07:10:31.829Z,1006.95
2017-09-05T07:11:12.394Z,1006.99
2017-09-05T07:11:52.971Z,1006.92
2017-09-05T07:12:33.552Z,1006.92
2017-09-05T07:13:14.093Z,1006.93
2017-09-05T07:13:54.708Z,1006.94
2017-09-05T07:14:35.225Z,1006.95
2017-09-05T07:15:15.707Z,1006.95
2017-09-05T07:15:56.245Z,1006.93
2017-09-05T07:16:36.849Z,1006.97
2017-09-05T07:17:17.519Z,1006.97
2017-09-05T07:17:57.975Z,1006.96
2017-09-05T07:18:38.558Z,1006.95
2017-09-05T07:19:19.148Z,1006.9
2017-09-05T07:19:59.699Z,1006.89
2017-09-05T07:20:40.267Z,1006.91
2017-09-05T07:21:21.020Z,1006.9
2017-09-05T07:22:01.354Z,1006.91
2017-09-05T07:22:41.942Z,1006.89
2017-09-05T07:23:22.432Z,1006.91
2017-09-05T07:24:03.025Z,1006.94
2017-09-05T07:24:43.645Z,1006.96
2017-09-05T07:25:24.157Z,1006.97
2017-09-05T07:26:04.767Z,1007
2017-09-05T07:26:45.272Z,1006.96
2017-09-05T07:27:25.851Z,1006.96
2017-09-05T07:28:06.412Z,1006.99
2017-09-05T07:28:46.965Z,1006.98
2017-09-05T07:29:27.558Z,1006.98
2017-09-05T07:30:08.094Z,1006.98
2017-09-05T07:30:48.628Z,1006.94
2017-09-05T07:31:29.179Z,1006.93
2017-09-05T07:32:09.671Z,1006.99
2017-09-05T07:32:50.258Z,1006.97
2017-09-05T07:33:30.738Z,1006.98
2017-09-05T07:34:11.300Z,1007.04
2017-09-05T07:34:51.864Z,1007.01
2017-09-05T07:35:32.390Z,1007.03
2017-09-05T07:36:12.959Z,1007.07
2017-09-05T07:36:53.453Z,1007.08
2017-09-05T07:37:34.021Z,1007.04
2017-09-05T07:38:14.597Z,1007.05
2017-09-05T07:38:55.164Z,1007.04
2017-09-05T07:39:35.768Z,1007.05
2017-09-05T07:40:16.342Z,1007.02
2017-09-05T07:40:56.922Z,1007.06
2017-09-05T07:41:37.506Z,1007.03
2017-09-05T07:42:18.051Z,1007.03
2017-09-05T07:42:58.733Z,1007.04
2017-09-05T07:43:39.272Z,1007.04
2017-09-05T07:44:19.783Z,1007.05
2017-09-05T07:45:00.347Z,1007.06
2017-09-05T07:45:40.899Z,1007.06
2017-09-05T07:46:21.474Z,1007.08
2017-09-05T07:47:02.012Z,1007.09
2017-09-05T07:47:42.581Z,1007.04
2017-09-05T07:48:23.113Z,1007.05
2017-09-05T07:49:03.695Z,1007.07
2017-09-05T07:49:44.300Z,1007.07
2017-09-05T07:50:24.870Z,1007.07
2017-09-05T07:51:05.427Z,1007.09
2017-09-05T07:51:45.986Z,1007.04
2017-09-05T07:52:26.531Z,1007.06
2017-09-05T07:53:07.095Z,1007.09
2017-09-05T07:53:47.646Z,1007.06
2017-09-05T07:54:28.199Z,1007.04
2017-09-05T07:55:08.780Z,1007.05
2017-09-05T07:55:49.298Z,1007.11
2017-09-05T07:56:29.856Z,1007.07
2017-09-05T07:57:10.522Z,1007.06
2017-09-05T07:57:51.050Z,1007.05
2017-09-05T07:58:31.626Z,1007.06
2017-09-05T07:59:12.166Z,1007.06
2017-09-05T07:59:52.730Z,1007.07
2017-09-05T08:00:33.252Z,1007.07
2017-09-05T08:01:13.788Z,1007.07
2017-09-05T08:01:54.350Z,1007.09
2017-09-05T08:02:34.905Z,1007.07
2017-09-05T08:03:15.484Z,1007.07
2017-09-05T08:03:56.027Z,1007.1
2017-09-05T08:04:36.574Z,1007.09
2017-09-05T08:05:17.160Z,1007.12
2017-09-05T08:05:57.721Z,1007.08
2017-09-05T08:06:38.286Z,1007.09
2017-09-05T08:07:18.857Z,1007.07
2017-09-05T08:07:59.401Z,1007.09
2017-09-05T08:08:39.953Z,1007.07
2017-09-05T08:09:20.532Z,1007.05
2017-09-05T08:10:01.065Z,1007.03
2017-09-05T08:10:41.611Z,1007.01
2017-09-05T08:11:22.185Z,1007
2017-09-05T08:12:02.733Z,1007.05
2017-09-05T08:12:43.323Z,1007.04